Time;durP1;ratioP1;P1;durP2;ratioP2;P2;SDS_P1;SDS_P2;PMS_P1;PMS_P2;Temp;Humidity;BMP_temperature;BMP_pressure;BME280_temperature;BME280_humidity;BME280_pressure;Samples;Min_cycle;Max_cycle;Signal;HPM_P1;HPM_P2
2022/08/28 05:47:09;;;;;;;31.38;5.90;;;15.40;99.90;;;;;;5097757;27;20411;-80
2022/08/28 05:49:35;;;;;;;26.95;5.75;;;15.20;99.90;;;;;;5081316;28;20024;-79
2022/08/28 05:52:03;;;;;;;25.17;6.15;;;15.20;99.90;;;;;;5086253;28;20024;-79
2022/08/28 05:54:28;;;;;;;27.65;7.03;;;15.30;99.90;;;;;;5088385;28;20101;-79
2022/08/28 05:56:54;;;;;;;21.25;5.05;;;15.30;99.90;;;;;;5086250;28;20064;-81
2022/08/28 05:59:20;;;;;;;18.45;6.18;;;15.40;99.90;;;;;;5084177;28;20020;-81
2022/08/28 06:01:47;;;;;;;31.52;5.55;;;15.50;99.90;;;;;;5082893;28;20031;-80
2022/08/28 06:04:24;;;;;;;22.95;5.28;;;15.60;99.90;;;;;;5081424;28;20040;-80
2022/08/28 06:06:49;;;;;;;32.35;6.80;;;15.60;99.90;;;;;;5079585;28;20040;-79
2022/08/28 06:09:19;;;;;;;23.15;6.03;;;15.70;99.90;;;;;;5082923;28;20458;-78
2022/08/28 06:11:46;;;;;;;29.17;5.50;;;15.70;99.90;;;;;;5087533;28;20499;-79
2022/08/28 06:14:13;;;;;;;29.17;5.93;;;15.70;99.90;;;;;;5083738;28;20092;-78
2022/08/28 06:16:43;;;;;;;18.55;5.35;;;15.70;99.90;;;;;;5086610;28;20480;-79
2022/08/28 06:19:11;;;;;;;25.23;5.40;;;15.80;99.90;;;;;;5084635;28;20028;-79
2022/08/28 06:21:37;;;;;;;30.08;6.05;;;15.80;99.90;;;;;;5086010;28;20028;-79
2022/08/28 06:24:07;;;;;;;25.65;5.90;;;15.90;99.90;;;;;;5086882;28;20028;-80
2022/08/28 06:26:35;;;;;;;27.20;5.60;;;15.90;99.90;;;;;;5085694;28;20532;-79
2022/08/28 06:29:04;;;;;;;19.08;5.20;;;16.00;99.90;;;;;;5084111;28;20028;-79
2022/08/28 06:31:30;;;;;;;25.02;5.72;;;16.00;99.90;;;;;;5078834;28;20024;-79
2022/08/28 06:33:57;;;;;;;20.30;4.65;;;15.90;99.90;;;;;;5083958;28;20035;-79
2022/08/28 06:36:26;;;;;;;32.08;6.88;;;16.00;99.90;;;;;;5084777;28;20082;-80
2022/08/28 06:38:53;;;;;;;29.00;7.00;;;16.00;99.90;;;;;;5080960;28;20074;-80
2022/08/28 06:41:19;;;;;;;22.30;5.32;;;16.10;99.90;;;;;;5083835;28;20036;-79
2022/08/28 06:43:45;;;;;;;28.13;5.70;;;16.00;99.90;;;;;;5093688;28;20020;-79
2022/08/28 06:46:11;;;;;;;25.13;5.47;;;16.00;99.90;;;;;;5082246;28;20066;-80
2022/08/28 06:48:37;;;;;;;23.38;6.10;;;16.10;99.90;;;;;;5081808;28;20070;-79
2022/08/28 06:51:05;;;;;;;28.65;6.55;;;16.10;99.90;;;;;;5084597;28;20035;-79
2022/08/28 06:53:32;;;;;;;25.50;5.30;;;16.10;99.90;;;;;;5084456;28;20183;-80
2022/08/28 06:56:01;;;;;;;29.17;5.63;;;16.10;99.90;;;;;;5085537;28;20488;-79
2022/08/28 06:58:29;;;;;;;18.73;5.15;;;16.10;99.90;;;;;;5071296;28;20035;-81
2022/08/28 07:01:07;;;;;;;32.72;6.88;;;16.10;99.90;;;;;;5070540;28;20052;-80
2022/08/28 07:03:33;;;;;;;18.67;4.90;;;16.20;99.90;;;;;;5070128;28;20460;-79
2022/08/28 07:06:01;;;;;;;27.50;5.45;;;16.10;99.90;;;;;;5070415;28;20067;-79
2022/08/28 07:08:28;;;;;;;27.75;6.13;;;16.10;99.90;;;;;;5065246;28;20528;-80
2022/08/28 07:10:54;;;;;;;26.67;6.60;;;16.10;99.90;;;;;;5067753;28;20025;-79
2022/08/28 07:13:21;;;;;;;21.38;5.57;;;16.10;99.90;;;;;;5077823;28;20036;-79
2022/08/28 07:15:47;;;;;;;31.60;7.38;;;16.20;99.90;;;;;;5071288;28;20327;-79
2022/08/28 07:18:14;;;;;;;34.42;6.18;;;16.20;99.90;;;;;;5071700;28;20043;-79
2022/08/28 07:20:40;;;;;;;28.80;5.13;;;16.20;99.90;;;;;;5069883;28;20032;-79
2022/08/28 07:23:06;;;;;;;24.52;5.32;;;16.20;99.90;;;;;;5071271;28;20098;-79
2022/08/28 07:25:32;;;;;;;27.98;6.30;;;16.20;99.90;;;;;;5068891;28;20123;-79
2022/08/28 07:27:59;;;;;;;21.15;5.32;;;16.20;99.90;;;;;;5068346;28;20132;-79
2022/08/28 07:30:24;;;;;;;34.85;7.93;;;16.30;99.90;;;;;;5068976;28;20058;-79
2022/08/28 07:32:50;;;;;;;18.00;5.25;;;16.40;99.90;;;;;;5071627;28;20475;-79
2022/08/28 07:35:17;;;;;;;23.10;5.95;;;16.40;99.90;;;;;;5069242;28;20063;-78
2022/08/28 07:37:44;;;;;;;22.48;5.35;;;16.40;99.90;;;;;;5073323;28;20030;-79
2022/08/28 07:40:10;;;;;;;26.48;5.75;;;16.50;99.90;;;;;;5069531;28;20025;-80
2022/08/28 07:45:21;;;;;;;21.00;5.25;;;16.60;99.90;;;;;;5071948;28;20098;-80
2022/08/28 07:47:47;;;;;;;40.95;6.47;;;16.70;99.90;;;;;;5070216;28;20059;-80
2022/08/28 07:50:14;;;;;;;24.65;5.30;;;16.70;99.90;;;;;;5084388;28;20020;-79
2022/08/28 07:52:40;;;;;;;22.98;6.20;;;16.80;99.90;;;;;;5071674;28;20029;-82
2022/08/28 07:55:07;;;;;;;29.63;6.90;;;16.80;99.90;;;;;;5067743;28;20111;-79
2022/08/28 07:57:33;;;;;;;20.33;5.30;;;16.80;99.90;;;;;;5070843;28;20036;-79
2022/08/28 07:59:59;;;;;;;21.17;6.03;;;16.80;99.90;;;;;;5063842;28;20036;-79
2022/08/28 08:02:25;;;;;;;14.60;5.15;;;16.90;99.90;;;;;;5068957;28;20033;-79
2022/08/28 08:04:51;;;;;;;19.73;4.80;;;16.90;99.90;;;;;;5066407;28;20032;-80
2022/08/28 08:07:18;;;;;;;20.90;5.35;;;17.00;99.90;;;;;;5069820;28;20033;-79
2022/08/28 08:09:45;;;;;;;28.38;7.35;;;17.10;99.90;;;;;;5065249;28;20086;-79
2022/08/28 08:12:13;;;;;;;20.52;4.88;;;17.20;99.90;;;;;;5069498;28;20033;-80
2022/08/28 08:14:40;;;;;;;21.35;5.53;;;17.20;99.90;;;;;;5066037;28;20123;-80
2022/08/28 08:17:06;;;;;;;26.58;5.18;;;17.20;99.90;;;;;;5071822;28;20028;-80
2022/08/28 08:19:32;;;;;;;19.85;5.00;;;17.20;99.90;;;;;;5069062;28;20028;-80
2022/08/28 08:21:58;;;;;;;28.67;5.40;;;17.20;99.90;;;;;;5070408;28;20426;-84
2022/08/28 08:24:25;;;;;;;31.92;7.03;;;17.20;99.90;;;;;;5067623;28;20063;-82
2022/08/28 08:26:53;;;;;;;28.73;5.07;;;17.20;99.90;;;;;;5068001;28;20040;-79
2022/08/28 08:29:19;;;;;;;19.27;4.63;;;17.20;99.90;;;;;;5066943;28;20122;-80
2022/08/28 08:31:45;;;;;;;27.52;6.63;;;17.20;99.90;;;;;;5070816;28;20036;-79
2022/08/28 08:34:11;;;;;;;16.70;4.80;;;17.20;99.90;;;;;;5068841;28;20438;-79
2022/08/28 08:36:38;;;;;;;22.85;6.30;;;17.20;99.90;;;;;;5068506;28;20067;-80
2022/08/28 08:39:06;;;;;;;18.13;5.22;;;17.20;99.90;;;;;;5061201;28;20053;-80
2022/08/28 08:41:47;;;;;;;27.30;6.20;;;17.20;99.90;;;;;;5066646;28;20021;-80
2022/08/28 08:44:25;;;;;;;17.67;6.28;;;17.30;99.90;;;;;;5065409;28;20032;-79
2022/08/28 08:47:09;;;;;;;30.92;6.22;;;17.40;99.90;;;;;;5068737;28;20492;-80
2022/08/28 08:49:41;;;;;;;20.73;4.82;;;17.40;99.90;;;;;;5066543;28;20108;-79
2022/08/28 08:52:10;;;;;;;19.15;5.07;;;17.50;99.90;;;;;;5071366;28;20040;-80
2022/08/28 08:54:43;;;;;;;25.25;5.70;;;17.50;99.90;;;;;;5066505;28;20035;-79
2022/08/28 08:57:11;;;;;;;30.98;6.82;;;17.50;99.90;;;;;;5067423;28;20089;-79
2022/08/28 08:59:38;;;;;;;24.67;5.10;;;17.50;99.90;;;;;;5066889;28;20419;-81
2022/08/28 09:02:21;;;;;;;26.35;5.70;;;17.60;99.90;;;;;;5071130;28;20448;-79
2022/08/28 09:05:02;;;;;;;20.13;6.32;;;17.60;99.90;;;;;;5068458;28;20544;-80
2022/08/28 09:07:37;;;;;;;24.23;5.60;;;17.70;99.90;;;;;;5073238;28;20039;-79
2022/08/28 09:10:05;;;;;;;21.27;5.80;;;17.70;99.90;;;;;;5066066;28;20754;-81
2022/08/28 09:12:56;;;;;;;18.30;5.68;;;17.70;99.90;;;;;;5063896;28;20025;-79
2022/08/28 09:15:30;;;;;;;25.50;5.28;;;17.80;99.90;;;;;;5059150;28;20537;-81
2022/08/28 09:18:13;;;;;;;25.13;6.10;;;17.90;99.90;;;;;;5067768;28;21724;-81
2022/08/28 09:20:40;;;;;;;27.83;6.70;;;17.90;99.90;;;;;;5067043;28;20021;-80
2022/08/28 09:23:06;;;;;;;20.42;6.03;;;18.00;99.90;;;;;;5071575;28;20028;-82
2022/08/28 09:25:43;;;;;;;25.00;6.03;;;18.10;99.90;;;;;;5068407;28;20422;-81
2022/08/28 09:28:39;;;;;;;18.60;5.25;;;18.10;99.90;;;;;;5069218;28;20025;-81
2022/08/28 09:31:14;;;;;;;18.65;6.47;;;18.10;99.90;;;;;;5068189;28;20032;-80
2022/08/28 09:33:46;;;;;;;24.83;6.28;;;18.10;99.90;;;;;;5068205;28;20025;-80
2022/08/28 09:36:31;;;;;;;19.00;5.40;;;18.10;99.90;;;;;;5069397;28;20044;-79
2022/08/28 09:39:08;;;;;;;20.63;5.20;;;18.20;99.90;;;;;;5064297;28;20392;-81
2022/08/28 09:44:59;;;;;;;16.98;4.88;;;18.40;99.90;;;;;;5064080;28;20037;-82
2022/08/28 09:47:38;;;;;;;22.55;5.78;;;18.40;99.90;;;;;;5064353;28;20556;-80
2022/08/28 09:50:33;;;;;;;19.42;4.82;;;18.50;99.90;;;;;;5071563;28;20036;-80
2022/08/28 09:53:08;;;;;;;21.48;5.03;;;18.40;99.90;;;;;;5069165;28;20024;-81
2022/08/28 09:56:03;;;;;;;23.23;6.10;;;18.40;99.90;;;;;;5066700;28;20036;-79
2022/08/28 09:58:36;;;;;;;12.30;4.22;;;18.40;99.90;;;;;;5071790;28;20123;-82
2022/08/28 10:01:12;;;;;;;18.83;4.13;;;18.50;99.90;;;;;;5063591;28;20040;-80
2022/08/28 10:03:51;;;;;;;25.40;5.18;;;18.50;99.90;;;;;;5083961;28;20032;-80
2022/08/28 10:06:25;;;;;;;20.20;4.85;;;18.60;99.90;;;;;;5078823;28;20040;-80
2022/08/28 10:09:08;;;;;;;16.33;5.03;;;18.60;99.90;;;;;;5070711;28;20020;-80
2022/08/28 10:11:57;;;;;;;16.83;4.22;;;18.50;99.90;;;;;;5067323;28;20140;-79
2022/08/28 10:14:37;;;;;;;18.10;4.65;;;18.60;99.90;;;;;;5049287;28;20090;-79
2022/08/28 10:17:30;;;;;;;10.68;4.00;;;18.70;99.90;;;;;;5062070;28;20036;-80
2022/08/28 10:20:12;;;;;;;21.52;4.47;;;18.70;99.90;;;;;;5064173;28;20021;-81
2022/08/28 10:22:41;;;;;;;18.13;4.25;;;18.70;99.90;;;;;;5065918;28;20033;-80
2022/08/28 10:25:35;;;;;;;21.55;4.45;;;18.90;99.90;;;;;;5065546;28;20024;-80
2022/08/28 10:28:31;;;;;;;17.55;3.55;;;18.80;99.90;;;;;;5065192;28;20047;-80
2022/08/28 10:31:24;;;;;;;19.85;4.38;;;18.90;99.90;;;;;;5063215;28;20024;-80
2022/08/28 10:34:25;;;;;;;11.88;3.88;;;19.00;99.90;;;;;;5072920;28;20458;-80
2022/08/28 10:37:17;;;;;;;16.95;3.92;;;19.00;99.90;;;;;;5072120;28;20021;-81
2022/08/28 10:39:54;;;;;;;17.77;4.50;;;19.10;99.90;;;;;;5073365;28;20024;-81
2022/08/28 10:42:33;;;;;;;20.73;4.28;;;19.10;99.90;;;;;;5072219;28;20339;-81
2022/08/28 10:45:13;;;;;;;23.38;4.10;;;19.20;99.90;;;;;;5070455;28;20060;-80
2022/08/28 10:47:53;;;;;;;17.50;4.03;;;19.20;99.90;;;;;;5069451;28;20492;-81
2022/08/28 10:50:22;;;;;;;15.65;3.47;;;19.20;99.90;;;;;;5066058;28;20036;-80
2022/08/28 10:52:57;;;;;;;16.20;3.97;;;19.20;99.90;;;;;;5071501;28;20036;-80
2022/08/28 10:55:31;;;;;;;20.33;3.90;;;19.20;99.90;;;;;;5067693;28;20024;-80
2022/08/28 10:58:02;;;;;;;19.88;3.47;;;19.30;99.90;;;;;;5070727;28;20041;-81
2022/08/28 11:00:31;;;;;;;14.63;3.60;;;19.30;99.90;;;;;;5068813;28;20033;-80
2022/08/28 11:03:07;;;;;;;17.40;3.50;;;19.30;99.90;;;;;;5069909;28;20557;-80
2022/08/28 11:06:00;;;;;;;18.02;4.07;;;19.30;99.90;;;;;;5067334;28;20040;-80
2022/08/28 11:08:28;;;;;;;22.00;5.25;;;19.30;99.90;;;;;;5070319;28;20488;-81
2022/08/28 11:11:01;;;;;;;15.10;4.68;;;19.40;99.90;;;;;;5069145;28;20024;-80
2022/08/28 11:13:45;;;;;;;12.30;3.15;;;19.50;99.90;;;;;;5089691;28;20025;-80
2022/08/28 11:16:33;;;;;;;13.88;3.03;;;19.70;99.90;;;;;;5070935;28;20078;-80
2022/08/28 11:19:27;;;;;;;13.25;3.67;;;19.70;99.90;;;;;;5070753;28;20028;-79
2022/08/28 11:22:16;;;;;;;12.35;3.20;;;19.70;99.90;;;;;;5069811;28;20077;-81
2022/08/28 11:24:55;;;;;;;14.02;4.28;;;19.80;99.90;;;;;;5088974;28;20021;-79
2022/08/28 11:27:30;;;;;;;14.95;3.92;;;19.80;99.90;;;;;;5070639;28;20139;-81
2022/08/28 11:30:02;;;;;;;14.25;3.42;;;19.80;99.90;;;;;;5070061;28;20064;-80
2022/08/28 11:32:30;;;;;;;15.38;3.78;;;19.90;99.90;;;;;;5073624;28;20486;-80
2022/08/28 11:35:11;;;;;;;10.48;2.88;;;19.90;99.90;;;;;;5063778;28;20529;-80
2022/08/28 11:37:46;;;;;;;14.10;3.40;;;20.00;99.90;;;;;;5069199;28;20031;-80
2022/08/28 11:40:31;;;;;;;17.25;3.38;;;20.00;99.90;;;;;;5068438;28;20052;-80
2022/08/28 11:43:14;;;;;;;13.82;3.50;;;20.10;99.90;;;;;;5070619;28;20033;-80
2022/08/28 11:45:44;;;;;;;18.95;3.47;;;20.10;99.90;;;;;;5068541;28;20037;-79
2022/08/28 11:48:40;;;;;;;14.48;3.17;;;20.30;99.90;;;;;;5068655;28;20059;-80
2022/08/28 11:51:43;;;;;;;9.73;3.35;;;20.40;99.90;;;;;;5063762;28;20385;-80
2022/08/28 11:54:55;;;;;;;18.48;3.92;;;20.40;99.90;;;;;;5067302;28;20033;-79
2022/08/28 11:57:39;;;;;;;16.65;4.30;;;20.30;99.90;;;;;;5074104;28;20028;-79
2022/08/28 12:00:20;;;;;;;15.48;3.70;;;20.30;99.90;;;;;;5076330;28;20051;-79
2022/08/28 12:03:00;;;;;;;20.50;3.95;;;20.30;99.90;;;;;;5071934;28;20112;-79
2022/08/28 12:05:34;;;;;;;11.52;3.22;;;20.30;99.90;;;;;;5066635;28;20047;-79
2022/08/28 12:08:01;;;;;;;11.48;3.13;;;20.50;99.90;;;;;;5070055;28;20150;-80
2022/08/28 12:10:28;;;;;;;12.27;3.03;;;20.60;99.90;;;;;;5066320;28;20050;-79
2022/08/28 12:13:00;;;;;;;13.30;3.63;;;20.60;99.90;;;;;;5070867;28;20496;-78
2022/08/28 12:15:29;;;;;;;12.60;4.05;;;20.70;99.90;;;;;;5068723;28;20032;-79
2022/08/28 12:17:56;;;;;;;9.80;3.40;;;20.70;99.90;;;;;;5074688;28;20024;-79
2022/08/28 12:20:29;;;;;;;19.70;3.67;;;20.80;99.90;;;;;;5068713;28;20025;-79
2022/08/28 12:23:18;;;;;;;15.00;3.83;;;20.90;99.90;;;;;;5069434;28;20591;-79
2022/08/28 12:25:45;;;;;;;12.00;3.80;;;21.00;99.90;;;;;;5065931;28;20037;-79
2022/08/28 12:28:47;;;;;;;10.80;3.35;;;21.10;99.90;;;;;;5070915;28;20028;-79
2022/08/28 12:34:48;;;;;;;19.40;3.78;;;21.10;99.90;;;;;;5068162;28;20036;-80
2022/08/28 12:37:43;;;;;;;9.48;3.10;;;21.10;99.90;;;;;;5064455;28;20040;-78
2022/08/28 12:40:26;;;;;;;11.90;2.97;;;21.10;99.90;;;;;;5066491;28;20024;-79
2022/08/28 12:43:17;;;;;;;11.18;3.25;;;21.20;99.90;;;;;;5067525;28;20024;-78
2022/08/28 12:45:57;;;;;;;14.60;3.67;;;21.30;99.90;;;;;;5065262;28;20073;-79
2022/08/28 12:48:32;;;;;;;10.90;3.85;;;21.40;99.90;;;;;;5069967;28;20028;-79
2022/08/28 12:50:59;;;;;;;11.77;3.47;;;21.40;99.90;;;;;;5065406;28;20040;-79
2022/08/28 12:53:25;;;;;;;13.48;3.75;;;21.50;99.90;;;;;;5069157;28;20028;-78
2022/08/28 12:55:54;;;;;;;17.42;3.67;;;21.50;99.90;;;;;;5068471;28;20331;-79
2022/08/28 12:58:33;;;;;;;9.13;2.72;;;21.60;99.90;;;;;;5066405;28;20430;-79
2022/08/28 13:01:04;;;;;;;10.27;3.45;;;21.50;99.90;;;;;;5064842;28;20097;-80
2022/08/28 13:03:31;;;;;;;10.05;2.97;;;21.60;99.90;;;;;;5067453;28;20032;-79
2022/08/28 13:06:06;;;;;;;14.85;3.38;;;21.60;99.90;;;;;;5067347;28;20449;-78
2022/08/28 13:08:34;;;;;;;11.68;3.15;;;21.70;99.90;;;;;;5065948;28;20025;-79
2022/08/28 13:11:00;;;;;;;11.35;3.35;;;21.80;99.90;;;;;;5068118;28;20032;-79
2022/08/28 13:13:45;;;;;;;13.40;3.83;;;21.90;99.90;;;;;;5069160;28;20491;-78
2022/08/28 13:16:32;;;;;;;12.73;3.00;;;22.00;99.90;;;;;;5061824;28;20077;-80
2022/08/28 13:19:04;;;;;;;15.85;3.15;;;22.00;99.90;;;;;;5067541;28;20044;-80
2022/08/28 13:21:34;;;;;;;14.88;4.43;;;22.00;99.90;;;;;;5069213;28;20055;-80
2022/08/28 13:24:20;;;;;;;13.88;3.17;;;22.10;99.90;;;;;;5067665;28;20043;-78
2022/08/28 13:26:47;;;;;;;15.70;3.65;;;22.20;99.40;;;;;;5066591;28;20032;-79
2022/08/28 13:29:22;;;;;;;8.55;3.20;;;22.20;97.80;;;;;;5068565;28;20036;-80
2022/08/28 13:32:08;;;;;;;10.60;3.13;;;22.20;95.40;;;;;;5068362;28;20036;-79
2022/08/28 13:34:36;;;;;;;10.88;3.05;;;22.10;97.50;;;;;;5068290;28;20031;-79
2022/08/28 13:37:08;;;;;;;12.80;3.38;;;22.10;99.40;;;;;;5067567;28;20036;-80
2022/08/28 13:39:36;;;;;;;11.93;3.78;;;22.10;99.20;;;;;;5068966;28;20036;-79
2022/08/28 13:42:12;;;;;;;14.75;4.15;;;22.30;98.40;;;;;;5066417;28;20033;-79
2022/08/28 13:44:52;;;;;;;8.98;2.55;;;22.20;99.30;;;;;;5068128;28;20054;-79
2022/08/28 13:47:17;;;;;;;13.05;3.20;;;22.10;99.90;;;;;;5068851;28;20041;-79
2022/08/28 13:49:43;;;;;;;15.32;3.92;;;22.10;99.90;;;;;;5065875;28;20024;-78
2022/08/28 13:52:09;;;;;;;16.08;3.28;;;22.10;99.00;;;;;;5069896;28;20476;-78
2022/08/28 13:54:36;;;;;;;12.73;2.78;;;22.00;99.30;;;;;;5065269;28;20503;-78
2022/08/28 13:57:02;;;;;;;15.43;3.83;;;22.00;99.30;;;;;;5071759;28;20035;-78
2022/08/28 13:59:29;;;;;;;16.60;3.38;;;22.00;99.90;;;;;;5068148;28;20078;-79
2022/08/28 14:04:42;;;;;;;5.90;2.58;;;22.20;99.90;;;;;;5069399;28;20039;-78
2022/08/28 14:07:08;;;;;;;13.15;3.40;;;22.30;99.90;;;;;;5067775;28;20480;-78
2022/08/28 14:09:40;;;;;;;12.10;2.83;;;22.30;98.60;;;;;;5071860;28;20170;-78
2022/08/28 14:12:07;;;;;;;12.77;3.47;;;22.30;97.80;;;;;;5070857;28;20040;-77
2022/08/28 14:14:33;;;;;;;7.70;3.03;;;22.30;96.80;;;;;;5073521;28;20726;-78
2022/08/28 14:17:00;;;;;;;16.80;3.35;;;22.20;97.00;;;;;;5069320;28;20067;-80
2022/08/28 14:19:27;;;;;;;8.65;3.03;;;22.10;98.80;;;;;;5072914;28;20028;-77
2022/08/28 14:21:53;;;;;;;11.43;3.03;;;22.10;99.60;;;;;;5072101;28;20498;-78
2022/08/28 14:24:19;;;;;;;11.13;3.63;;;22.00;99.40;;;;;;5073102;28;20033;-78
2022/08/28 14:26:46;;;;;;;9.27;3.17;;;22.00;99.00;;;;;;5071816;28;20085;-79
2022/08/28 14:29:13;;;;;;;10.85;3.20;;;22.10;99.90;;;;;;5071317;28;20041;-77
2022/08/28 14:31:39;;;;;;;15.45;4.30;;;22.30;99.90;;;;;;5069529;28;20032;-77
2022/08/28 14:34:07;;;;;;;11.00;3.40;;;22.40;98.00;;;;;;5069319;28;20412;-78
2022/08/28 14:36:33;;;;;;;6.47;2.78;;;22.50;98.90;;;;;;5070463;28;20028;-78
2022/08/28 14:39:01;;;;;;;15.68;3.10;;;22.50;98.30;;;;;;5071525;28;20126;-79
2022/08/28 14:41:27;;;;;;;6.50;2.33;;;22.60;95.30;;;;;;5071581;28;20477;-77
2022/08/28 14:43:54;;;;;;;10.93;3.15;;;22.50;94.50;;;;;;5072170;28;20056;-77
2022/08/28 14:46:24;;;;;;;9.48;2.92;;;22.60;94.40;;;;;;5068124;28;20059;-78
2022/08/28 14:48:50;;;;;;;13.15;3.50;;;22.60;94.20;;;;;;5071127;28;20216;-78
2022/08/28 14:51:16;;;;;;;8.40;2.50;;;22.50;95.50;;;;;;5068960;28;20078;-78
2022/08/28 14:53:43;;;;;;;16.08;3.40;;;22.50;93.90;;;;;;5071717;28;20029;-77
2022/08/28 14:56:09;;;;;;;8.73;3.08;;;22.50;94.10;;;;;;5069327;28;20384;-78
2022/08/28 14:58:36;;;;;;;9.60;2.83;;;22.50;94.50;;;;;;5068241;28;20473;-77
2022/08/28 15:01:03;;;;;;;14.20;3.00;;;22.60;92.40;;;;;;5072213;28;20448;-77
2022/08/28 15:03:28;;;;;;;10.05;2.70;;;22.60;92.70;;;;;;5072025;28;20044;-77
2022/08/28 15:06:01;;;;;;;9.55;3.10;;;22.50;92.20;;;;;;5060778;28;20378;-78
2022/08/28 15:08:27;;;;;;;8.18;3.08;;;22.60;91.80;;;;;;5070171;28;20439;-77
2022/08/28 15:10:53;;;;;;;15.95;3.10;;;22.50;91.10;;;;;;5067303;28;20029;-78
2022/08/28 15:13:19;;;;;;;10.70;3.30;;;22.40;92.20;;;;;;5070843;28;20501;-77
2022/08/28 15:15:45;;;;;;;12.85;3.00;;;22.50;92.60;;;;;;5070225;28;20119;-78
2022/08/28 15:18:11;;;;;;;8.13;2.88;;;22.40;90.80;;;;;;5071967;28;20033;-78
2022/08/28 15:20:42;;;;;;;11.32;3.35;;;22.30;91.30;;;;;;5069246;28;20032;-77
2022/08/28 15:23:09;;;;;;;13.05;3.30;;;22.30;91.70;;;;;;5071687;28;20025;-77
2022/08/28 15:25:34;;;;;;;10.63;3.20;;;22.30;92.10;;;;;;5071081;28;20354;-77
2022/08/28 15:28:00;;;;;;;15.90;3.03;;;22.30;90.80;;;;;;5069804;28;20040;-78
2022/08/28 15:30:26;;;;;;;12.35;3.50;;;22.30;91.00;;;;;;5071423;28;20408;-77
2022/08/28 15:32:51;;;;;;;16.50;3.65;;;22.20;91.20;;;;;;5069356;28;20465;-77
2022/08/28 15:35:17;;;;;;;7.88;2.85;;;22.10;91.30;;;;;;5066871;28;20024;-78
2022/08/28 15:37:42;;;;;;;15.85;3.17;;;22.10;91.60;;;;;;5070508;28;20063;-78
2022/08/28 15:42:52;;;;;;;11.32;2.85;;;22.00;93.60;;;;;;5067319;28;20116;-78
2022/08/28 15:45:18;;;;;;;10.30;3.03;;;22.00;93.60;;;;;;5066133;28;20167;-78
2022/08/28 15:47:47;;;;;;;16.77;3.17;;;22.10;92.50;;;;;;5072072;28;20037;-78
2022/08/28 15:50:15;;;;;;;13.52;2.97;;;22.10;94.90;;;;;;5064329;28;20097;-79
2022/08/28 15:52:41;;;;;;;15.63;3.42;;;22.10;94.40;;;;;;5068268;28;20101;-77
2022/08/28 15:55:07;;;;;;;12.25;3.13;;;22.10;93.60;;;;;;5067547;28;20115;-77
2022/08/28 15:57:33;;;;;;;7.40;2.47;;;22.00;94.80;;;;;;5070059;28;20024;-77
2022/08/28 15:59:58;;;;;;;5.30;2.42;;;21.90;95.10;;;;;;5069235;28;20040;-78
2022/08/28 16:02:24;;;;;;;9.82;1.98;;;21.80;95.90;;;;;;5063956;28;20032;-77
2022/08/28 16:04:52;;;;;;;15.35;2.90;;;21.70;94.90;;;;;;5071539;28;20025;-78
2022/08/28 16:07:19;;;;;;;7.00;2.58;;;21.70;95.90;;;;;;5068950;28;20283;-78
2022/08/28 16:09:46;;;;;;;8.93;2.92;;;21.80;95.20;;;;;;5070073;28;20434;-78
2022/08/28 16:12:12;;;;;;;11.68;3.45;;;21.80;95.00;;;;;;5068210;28;20104;-77
2022/08/28 16:14:38;;;;;;;16.45;3.10;;;21.90;94.10;;;;;;5069020;28;20182;-77
2022/08/28 16:17:03;;;;;;;14.57;3.55;;;22.00;93.10;;;;;;5066021;28;20451;-77
2022/08/28 16:19:29;;;;;;;12.05;2.90;;;22.00;91.60;;;;;;5065593;28;20146;-77
2022/08/28 16:21:54;;;;;;;13.65;3.40;;;21.90;91.70;;;;;;5068489;28;20044;-77
2022/08/28 16:24:20;;;;;;;10.77;2.97;;;21.70;92.30;;;;;;5065805;28;20078;-77
2022/08/28 16:26:46;;;;;;;9.35;2.85;;;21.70;92.70;;;;;;5068308;28;20044;-77
2022/08/28 16:29:11;;;;;;;13.70;3.47;;;21.60;93.50;;;;;;5072690;28;20032;-77
2022/08/28 16:31:37;;;;;;;10.85;2.97;;;21.50;93.60;;;;;;5067851;28;20024;-77
2022/08/28 16:34:03;;;;;;;7.18;2.75;;;21.40;93.00;;;;;;5069545;28;20020;-77
2022/08/28 16:36:29;;;;;;;14.80;3.30;;;21.50;93.60;;;;;;5067853;28;20038;-77
2022/08/28 16:38:58;;;;;;;7.97;3.08;;;21.40;93.60;;;;;;5070835;28;20127;-77
2022/08/28 16:41:25;;;;;;;5.55;2.03;;;21.40;93.40;;;;;;5066679;28;20123;-77
2022/08/28 16:43:52;;;;;;;17.73;3.30;;;21.30;94.00;;;;;;5065853;28;20037;-77
2022/08/28 16:46:24;;;;;;;7.28;2.60;;;21.40;92.70;;;;;;5066233;28;20099;-77
2022/08/28 16:48:51;;;;;;;20.00;3.83;;;21.40;92.60;;;;;;5067318;28;20028;-77
2022/08/28 16:51:17;;;;;;;17.90;3.47;;;21.40;91.30;;;;;;5066498;28;20021;-77
2022/08/28 16:53:43;;;;;;;7.15;2.78;;;21.30;92.70;;;;;;5072206;28;20433;-77
2022/08/28 16:56:10;;;;;;;11.52;2.80;;;21.20;93.30;;;;;;5070070;28;20123;-77
2022/08/28 16:58:38;;;;;;;14.70;3.05;;;21.10;92.90;;;;;;5068678;28;20070;-77
2022/08/28 17:01:05;;;;;;;7.68;2.90;;;20.90;93.30;;;;;;5061421;28;20033;-78
2022/08/28 17:03:31;;;;;;;13.40;2.35;;;20.90;94.40;;;;;;5061729;28;20086;-78
2022/08/28 17:05:58;;;;;;;10.80;3.47;;;20.80;94.40;;;;;;5063798;28;21451;-77
2022/08/28 17:08:24;;;;;;;10.93;2.67;;;20.80;95.10;;;;;;5068380;28;20068;-77
2022/08/28 17:10:50;;;;;;;9.90;2.88;;;20.70;94.70;;;;;;5068218;28;20184;-77
2022/08/28 17:13:15;;;;;;;5.78;2.55;;;20.70;95.10;;;;;;5068342;28;20111;-77
2022/08/28 17:15:41;;;;;;;14.63;2.92;;;20.70;96.10;;;;;;5066769;28;20020;-77
2022/08/28 17:18:06;;;;;;;13.38;2.80;;;20.60;94.90;;;;;;5067149;28;20035;-77
2022/08/28 17:23:16;;;;;;;10.07;2.88;;;20.60;94.20;;;;;;5064242;28;20051;-77
2022/08/28 17:25:42;;;;;;;9.45;3.08;;;20.50;94.40;;;;;;5065620;28;20040;-77
2022/08/28 17:28:08;;;;;;;11.93;3.50;;;20.50;94.50;;;;;;5064936;28;20371;-77
2022/08/28 17:30:34;;;;;;;11.93;3.50;;;20.50;95.50;;;;;;5067547;28;20012;-77
2022/08/28 17:33:00;;;;;;;7.57;2.72;;;20.50;96.00;;;;;;5068162;28;20116;-78
2022/08/28 17:35:26;;;;;;;12.13;3.60;;;20.40;96.50;;;;;;5067997;28;20039;-78
2022/08/28 17:37:52;;;;;;;11.93;2.92;;;20.40;96.10;;;;;;5066695;28;20476;-77
2022/08/28 17:40:19;;;;;;;9.18;2.53;;;20.40;97.00;;;;;;5076752;28;20037;-77
2022/08/28 17:42:46;;;;;;;14.15;2.90;;;20.40;96.90;;;;;;5064389;28;20036;-77
2022/08/28 17:45:13;;;;;;;13.00;3.28;;;20.30;97.10;;;;;;5063091;28;20071;-77
2022/08/28 17:47:38;;;;;;;12.35;2.95;;;20.30;97.30;;;;;;5067294;28;20429;-77
2022/08/28 17:50:04;;;;;;;7.65;2.55;;;20.20;98.10;;;;;;5065195;28;20155;-77
2022/08/28 17:52:31;;;;;;;14.70;3.80;;;20.20;98.70;;;;;;5065539;28;20439;-78
2022/08/28 17:54:57;;;;;;;10.93;2.95;;;20.10;98.50;;;;;;5069602;28;20127;-77
2022/08/28 17:57:23;;;;;;;17.60;3.15;;;20.10;98.80;;;;;;5065970;28;20088;-77
2022/08/28 17:59:48;;;;;;;14.27;2.78;;;20.10;98.60;;;;;;5067576;28;20056;-77
2022/08/28 18:02:15;;;;;;;12.23;2.70;;;20.00;99.50;;;;;;5064678;28;20554;-77
2022/08/28 18:04:42;;;;;;;18.05;3.65;;;20.00;99.90;;;;;;5069441;28;20396;-77
2022/08/28 18:07:08;;;;;;;10.73;2.58;;;20.00;99.60;;;;;;5068051;28;20040;-77
2022/08/28 18:09:33;;;;;;;9.52;2.63;;;19.90;99.80;;;;;;5067694;28;20465;-77
2022/08/28 18:11:59;;;;;;;7.68;2.65;;;19.90;99.60;;;;;;5065617;28;20033;-78
2022/08/28 18:14:25;;;;;;;7.35;2.55;;;19.90;99.90;;;;;;5069286;28;20032;-77
2022/08/28 18:16:51;;;;;;;7.88;2.92;;;19.90;99.90;;;;;;5064226;28;20033;-77
2022/08/28 18:19:17;;;;;;;11.13;2.75;;;19.80;99.90;;;;;;5067319;28;20475;-78
2022/08/28 18:21:43;;;;;;;9.35;2.70;;;19.80;99.90;;;;;;5067359;28;20123;-77
2022/08/28 18:24:11;;;;;;;14.82;2.80;;;19.80;99.90;;;;;;5068177;28;20138;-77
2022/08/28 18:26:37;;;;;;;9.10;2.58;;;19.70;99.90;;;;;;5067245;28;20076;-77
2022/08/28 18:29:03;;;;;;;12.02;2.67;;;19.70;99.90;;;;;;5068357;28;20120;-77
2022/08/28 18:31:29;;;;;;;11.27;2.58;;;19.70;99.90;;;;;;5064174;28;20458;-78
2022/08/28 18:33:54;;;;;;;13.30;3.50;;;19.70;99.90;;;;;;5072043;28;20037;-77
2022/08/28 18:36:21;;;;;;;8.70;2.90;;;19.60;99.90;;;;;;5069573;28;20056;-77
2022/08/28 18:38:47;;;;;;;10.73;2.92;;;19.50;99.90;;;;;;5066249;28;20054;-77
2022/08/28 18:41:13;;;;;;;5.88;2.20;;;19.50;99.90;;;;;;5060249;28;20473;-77
2022/08/28 18:43:39;;;;;;;9.93;2.90;;;19.40;99.90;;;;;;5066197;28;20060;-77
2022/08/28 18:46:07;;;;;;;8.85;2.58;;;19.30;99.90;;;;;;5068121;28;20554;-77
2022/08/28 18:48:34;;;;;;;9.68;3.10;;;19.30;99.90;;;;;;5066160;28;20104;-77
2022/08/28 18:50:59;;;;;;;10.57;3.40;;;19.30;99.90;;;;;;5065799;28;20108;-79
2022/08/28 18:53:26;;;;;;;8.30;2.30;;;19.20;99.90;;;;;;5061034;28;20115;-77
2022/08/28 18:55:53;;;;;;;8.88;2.50;;;19.10;99.90;;;;;;5065964;28;20046;-77
2022/08/28 18:58:20;;;;;;;10.18;2.53;;;19.10;99.90;;;;;;5071348;28;20032;-77
2022/08/28 19:00:45;;;;;;;8.05;2.60;;;19.00;99.90;;;;;;5069488;28;20382;-77